Time;durP1;ratioP1;P1;durP2;ratioP2;P2;SDS_P1;SDS_P2;PMS_P1;PMS_P2;Temp;Humidity;BMP_temperature;BMP_pressure;BME280_temperature;BME280_humidity;BME280_pressure;Samples;Min_cycle;Max_cycle;Signal;HPM_P1;HPM_P2
2022/04/10 00:01:43;;;;;;;19.40;9.90;;;;;;;21.25;51.34;98076.50;1851560;77;25401;-85
2022/04/10 00:04:09;;;;;;;20.05;10.40;;;;;;;21.24;51.34;98077.09;1851639;77;25672;-86
2022/04/10 00:06:35;;;;;;;18.85;10.40;;;;;;;21.25;51.38;98087.06;1851891;77;26095;-85
2022/04/10 00:09:01;;;;;;;19.87;10.45;;;;;;;21.24;51.35;98084.67;1851808;77;25652;-86
2022/04/10 00:11:27;;;;;;;19.12;10.15;;;;;;;21.23;51.37;98078.30;1851741;77;27501;-85
2022/04/10 00:13:53;;;;;;;19.12;10.65;;;;;;;21.22;51.36;98075.32;1851829;77;25702;-86
2022/04/10 00:16:19;;;;;;;21.50;10.65;;;;;;;21.21;51.38;98081.30;1851746;77;25526;-85
2022/04/10 00:18:45;;;;;;;18.15;10.08;;;;;;;21.22;51.40;98084.27;1851904;77;25644;-85
2022/04/10 00:21:11;;;;;;;18.42;10.25;;;;;;;21.21;51.37;98084.08;1852042;77;25627;-87
2022/04/10 00:23:37;;;;;;;19.92;10.25;;;;;;;21.20;51.40;98093.03;1852263;77;27561;-86
2022/04/10 00:26:04;;;;;;;19.98;10.72;;;;;;;21.20;51.40;98091.63;1851509;77;26025;-85
2022/04/10 00:28:31;;;;;;;18.55;10.65;;;;;;;21.20;51.38;98087.45;1851826;77;25666;-85
2022/04/10 00:30:57;;;;;;;19.30;9.98;;;;;;;21.19;51.37;98090.83;1851973;77;25548;-85
2022/04/10 00:33:22;;;;;;;18.98;10.48;;;;;;;21.19;51.37;98097.80;1851991;77;26280;-86
2022/04/10 00:35:49;;;;;;;17.40;10.05;;;;;;;21.19;51.39;98092.84;1851902;77;27397;-86
2022/04/10 00:38:15;;;;;;;18.70;10.20;;;;;;;21.17;51.39;98092.43;1851841;77;25707;-85
2022/04/10 00:40:41;;;;;;;18.12;10.18;;;;;;;21.16;51.41;98099.20;1851627;77;25674;-85
2022/04/10 00:43:08;;;;;;;20.77;10.32;;;;;;;21.14;51.46;98100.20;1851531;77;25631;-87
2022/04/10 00:45:34;;;;;;;19.23;9.95;;;;;;;21.13;51.44;98096.61;1851542;77;25382;-86
2022/04/10 00:48:00;;;;;;;19.23;10.25;;;;;;;21.14;51.46;98102.39;1851788;77;27391;-86
2022/04/10 00:50:26;;;;;;;17.87;10.20;;;;;;;21.14;51.44;98108.55;1851887;77;26008;-85
2022/04/10 00:52:52;;;;;;;17.60;9.78;;;;;;;21.15;51.43;98109.55;1851998;77;25711;-86
2022/04/10 00:55:19;;;;;;;20.35;10.78;;;;;;;21.13;51.44;98113.32;1851885;77;25643;-86
2022/04/10 00:57:47;;;;;;;18.73;10.25;;;;;;;21.13;51.45;98115.33;1851725;77;25663;-89
2022/04/10 01:00:16;;;;;;;18.80;10.10;;;;;;;21.14;51.47;98114.12;1851489;77;27429;-87
2022/04/10 01:02:42;;;;;;;17.62;10.15;;;;;;;21.13;51.45;98121.67;1851666;77;25679;-85
2022/04/10 01:05:09;;;;;;;18.52;9.98;;;;;;;21.13;51.44;98122.30;1851570;77;25662;-88
2022/04/10 01:07:36;;;;;;;19.15;10.53;;;;;;;21.12;51.47;98128.45;1851655;77;25684;-85
2022/04/10 01:10:04;;;;;;;17.73;10.05;;;;;;;21.12;51.42;98117.31;1851586;77;25576;-85
2022/04/10 01:12:33;;;;;;;18.82;10.03;;;;;;;21.13;51.44;98119.51;1851471;77;28364;-85
2022/04/10 01:15:01;;;;;;;18.12;9.98;;;;;;;21.12;51.44;98118.70;1851615;77;25572;-84
2022/04/10 01:17:30;;;;;;;20.05;10.48;;;;;;;21.12;51.43;98122.88;1851218;77;25446;-85
2022/04/10 01:19:57;;;;;;;17.92;9.90;;;;;;;21.12;51.43;98132.63;1851560;77;25666;-85
2022/04/10 01:22:31;;;;;;;18.40;10.05;;;;;;;21.12;51.42;98126.25;1851596;77;25390;-86
2022/04/10 01:24:59;;;;;;;17.98;9.78;;;;;;;21.12;51.43;98134.61;1851637;77;27360;-85
2022/04/10 01:27:25;;;;;;;18.90;10.03;;;;;;;21.11;51.42;98135.23;1851413;77;25720;-85
2022/04/10 01:29:51;;;;;;;17.57;9.50;;;;;;;21.10;51.41;98140.58;1851656;77;25587;-85
2022/04/10 01:32:18;;;;;;;18.25;10.20;;;;;;;21.09;51.45;98146.55;1851200;77;26487;-84
2022/04/10 01:34:45;;;;;;;17.60;9.55;;;;;;;21.10;51.44;98152.34;1851597;77;25587;-85
2022/04/10 01:37:13;;;;;;;17.48;10.00;;;;;;;21.10;51.45;98162.09;1851454;77;27372;-84
2022/04/10 01:39:39;;;;;;;16.67;8.95;;;;;;;21.08;51.45;98162.48;1851547;77;25422;-85
2022/04/10 01:42:06;;;;;;;16.77;9.45;;;;;;;21.09;51.44;98160.48;1851561;77;25713;-85
2022/04/10 01:44:42;;;;;;;15.45;9.08;;;;;;;21.09;51.41;98167.44;1851480;77;25575;-85
2022/04/10 01:47:09;;;;;;;18.25;9.48;;;;;;;21.08;51.45;98159.70;1851618;77;25602;-85
2022/04/10 01:49:36;;;;;;;16.90;9.58;;;;;;;21.07;51.45;98170.63;1851167;77;27513;-86
2022/04/10 01:52:04;;;;;;;16.00;9.33;;;;;;;21.07;51.46;98174.80;1851491;77;26008;-85
2022/04/10 01:54:31;;;;;;;17.42;9.58;;;;;;;21.08;51.45;98184.77;1851397;77;25594;-84
2022/04/10 01:56:57;;;;;;;16.90;9.45;;;;;;;21.06;51.45;98187.95;1851592;77;25427;-85
2022/04/10 01:59:23;;;;;;;17.32;9.30;;;;;;;21.04;51.46;98186.15;1851566;77;25449;-85
2022/04/10 02:01:49;;;;;;;15.72;9.13;;;;;;;21.06;51.45;98188.54;1851890;77;28060;-85
2022/04/10 02:04:17;;;;;;;16.57;9.08;;;;;;;21.06;51.45;98196.31;1851652;77;25634;-85
2022/04/10 02:06:43;;;;;;;17.80;9.00;;;;;;;21.05;51.43;98193.34;1851560;77;25729;-85
2022/04/10 02:09:10;;;;;;;17.23;9.28;;;;;;;21.06;51.42;98200.48;1851724;77;25459;-84
2022/04/10 02:11:36;;;;;;;15.03;8.85;;;;;;;21.06;51.44;98194.92;1851885;77;25386;-85
2022/04/10 02:14:02;;;;;;;15.90;8.93;;;;;;;21.06;51.41;98198.29;1851951;77;27353;-85
2022/04/10 02:16:28;;;;;;;17.15;8.98;;;;;;;21.06;51.43;98201.08;1851755;77;25771;-84
2022/04/10 02:18:54;;;;;;;16.75;9.15;;;;;;;21.07;51.42;98204.05;1851868;77;25680;-84
2022/04/10 02:21:20;;;;;;;15.88;9.63;;;;;;;21.07;51.40;98205.44;1851766;77;26196;-84
2022/04/10 02:23:46;;;;;;;16.15;8.90;;;;;;;21.08;51.38;98210.43;1851888;77;25678;-85
2022/04/10 02:26:13;;;;;;;16.23;9.18;;;;;;;21.07;51.40;98208.23;1851892;77;27260;-84
2022/04/10 02:28:40;;;;;;;16.90;9.10;;;;;;;21.05;51.41;98205.87;1851764;77;25822;-86
2022/04/10 02:31:07;;;;;;;16.90;9.10;;;;;;;21.06;51.40;98208.04;1851946;77;25461;-86
2022/04/10 02:33:33;;;;;;;17.92;8.93;;;;;;;21.06;51.40;98201.08;1851791;77;25699;-84
2022/04/10 02:36:04;;;;;;;17.30;8.88;;;;;;;21.06;51.41;98205.25;1851836;77;25635;-84
2022/04/10 02:38:30;;;;;;;14.03;8.03;;;;;;;21.06;51.40;98206.06;1851941;77;27374;-84
2022/04/10 02:40:56;;;;;;;14.80;9.00;;;;;;;21.06;51.39;98207.45;1851744;77;25695;-84
2022/04/10 02:43:22;;;;;;;15.88;8.98;;;;;;;21.04;51.40;98202.86;1851440;77;25457;-85
2022/04/10 02:45:48;;;;;;;15.88;8.60;;;;;;;21.05;51.39;98206.45;1851867;77;25575;-85
2022/04/10 02:48:15;;;;;;;16.00;8.48;;;;;;;21.05;51.39;98206.45;1851893;77;25635;-85
2022/04/10 02:50:41;;;;;;;16.57;8.95;;;;;;;21.03;51.40;98206.85;1851791;77;27382;-85
2022/04/10 02:53:08;;;;;;;14.38;8.48;;;;;;;21.03;51.40;98204.66;1851702;77;25714;-84
2022/04/10 02:55:34;;;;;;;14.35;8.18;;;;;;;;;;1851834;77;25600;-84
2022/04/10 02:58:00;;;;;;;16.50;8.95;;;;;;;21.04;51.37;98200.69;1851820;77;25449;-85
2022/04/10 03:00:26;;;;;;;14.45;8.28;;;;;;;21.04;51.37;98204.88;1851143;77;25638;-84
2022/04/10 03:02:53;;;;;;;15.98;8.53;;;;;;;21.04;51.36;98206.27;1851029;77;27472;-86
2022/04/10 03:05:19;;;;;;;14.60;8.30;;;;;;;21.04;51.36;98208.44;1851457;77;25568;-86
2022/04/10 03:07:45;;;;;;;14.80;8.80;;;;;;;21.04;51.35;98203.48;1851496;77;25706;-84
2022/04/10 03:10:11;;;;;;;15.53;8.90;;;;;;;21.04;51.35;98209.05;1851696;77;26057;-84
2022/04/10 03:12:37;;;;;;;16.57;8.45;;;;;;;21.03;51.34;98208.24;1851467;77;25698;-84
2022/04/10 03:15:06;;;;;;;14.07;8.20;;;;;;;21.04;51.35;98204.88;1851509;77;28069;-84
2022/04/10 03:17:32;;;;;;;14.25;8.33;;;;;;;21.04;51.35;98213.23;1851353;77;25410;-85
2022/04/10 03:19:58;;;;;;;17.15;8.80;;;;;;;;;;1851506;77;25675;-85
2022/04/10 03:22:23;;;;;;;14.87;7.87;;;;;;;;;;1851508;77;25431;-84
2022/04/10 03:24:50;;;;;;;14.30;7.55;;;;;;;21.02;51.35;98221.17;1851474;77;25595;-86
2022/04/10 03:27:16;;;;;;;15.70;8.63;;;;;;;21.01;51.34;98213.41;1844827;77;27344;-86
2022/04/10 03:29:42;;;;;;;13.98;8.40;;;;;;;21.00;51.37;98222.16;1851465;77;25655;-87
2022/04/10 03:32:08;;;;;;;16.30;8.33;;;;;;;21.00;51.36;98220.77;1851468;77;25710;-86
2022/04/10 03:34:34;;;;;;;16.00;8.75;;;;;;;20.96;51.40;98226.93;1851483;77;25652;-86
2022/04/10 03:37:01;;;;;;;14.93;8.68;;;;;;;20.96;51.42;98229.72;1851534;77;25663;-87
2022/04/10 03:39:27;;;;;;;14.83;8.45;;;;;;;20.95;51.45;98233.70;1851604;77;27340;-85
2022/04/10 03:41:53;;;;;;;15.93;8.40;;;;;;;20.94;51.46;98237.08;1851437;77;25434;-86
2022/04/10 03:44:19;;;;;;;13.98;7.90;;;;;;;20.93;51.46;98243.23;1851486;77;25414;-87
2022/04/10 03:46:45;;;;;;;16.55;8.68;;;;;;;20.94;51.46;98241.25;1851279;77;26090;-85
2022/04/10 03:49:11;;;;;;;14.25;8.33;;;;;;;20.93;51.46;98247.41;1851656;77;25382;-86
2022/04/10 03:51:38;;;;;;;13.22;7.80;;;;;;;20.95;51.43;98247.63;1851438;77;27392;-84
2022/04/10 03:54:04;;;;;;;15.93;8.48;;;;;;;20.96;51.39;98258.38;1851181;77;25575;-85
2022/04/10 03:56:30;;;;;;;14.03;7.58;;;;;;;20.96;51.40;98261.74;1851568;77;25695;-84
2022/04/10 03:58:57;;;;;;;12.98;7.35;;;;;;;20.96;51.39;98267.31;1851091;77;26108;-85
2022/04/10 04:01:23;;;;;;;15.40;7.78;;;;;;;20.94;51.39;98273.28;1851474;77;25391;-84
2022/04/10 04:03:49;;;;;;;12.68;7.70;;;;;;;20.92;51.37;98269.49;1854772;76;27350;-88
2022/04/10 04:06:16;;;;;;;12.35;7.33;;;;;;;20.92;51.38;98275.06;1855276;76;25636;-88
2022/04/10 04:08:42;;;;;;;12.47;7.22;;;;;;;20.92;51.35;98276.45;1861431;76;25680;-88
2022/04/10 04:11:09;;;;;;;13.20;7.42;;;;;;;20.92;51.34;98284.00;1856482;76;25735;-87
2022/04/10 04:13:40;;;;;;;13.45;7.85;;;;;;;20.91;51.31;98283.23;1851806;77;25728;-85
2022/04/10 04:16:07;;;;;;;12.23;7.50;;;;;;;20.92;51.29;98286.20;1851388;77;27430;-86
2022/04/10 04:18:34;;;;;;;12.63;8.10;;;;;;;20.93;51.26;98289.19;1851701;77;25684;-85
2022/04/10 04:21:02;;;;;;;13.32;7.80;;;;;;;20.94;51.26;98292.77;1851323;77;25635;-89
2022/04/10 04:23:29;;;;;;;14.25;7.95;;;;;;;20.94;51.25;98295.56;1848704;77;25421;-88
2022/04/10 04:25:55;;;;;;;13.40;7.65;;;;;;;20.95;51.25;98294.36;1851469;77;25745;-89
2022/04/10 04:28:21;;;;;;;12.82;7.33;;;;;;;20.96;51.22;98308.51;1851777;77;27403;-85
2022/04/10 04:30:47;;;;;;;14.23;7.37;;;;;;;20.96;51.23;98302.13;1851727;77;25738;-88
2022/04/10 04:33:16;;;;;;;13.55;7.28;;;;;;;20.97;51.19;98310.09;1851749;77;25580;-87
2022/04/10 04:35:41;;;;;;;13.43;7.20;;;;;;;20.98;51.17;98315.86;1851142;77;25635;-87
2022/04/10 04:38:07;;;;;;;13.35;7.58;;;;;;;20.98;51.19;98316.47;1851674;77;25670;-86
2022/04/10 04:40:33;;;;;;;12.28;7.12;;;;;;;20.98;51.18;98320.03;1851863;77;27378;-85
2022/04/10 04:42:59;;;;;;;12.98;7.37;;;;;;;21.00;51.16;98329.39;1851609;77;25831;-87
2022/04/10 04:45:26;;;;;;;11.73;7.17;;;;;;;21.00;51.15;98331.59;1851704;77;25654;-87
2022/04/10 04:47:52;;;;;;;13.22;7.40;;;;;;;21.00;51.16;98335.77;1851737;77;25646;-86
2022/04/10 04:50:18;;;;;;;12.95;6.80;;;;;;;21.01;51.17;98340.75;1851664;77;25619;-85
2022/04/10 04:52:44;;;;;;;11.50;7.20;;;;;;;21.01;51.16;98341.53;1851668;77;27444;-87
2022/04/10 04:55:10;;;;;;;12.88;7.22;;;;;;;21.02;51.13;98346.52;1851216;77;25659;-85
2022/04/10 04:57:36;;;;;;;11.65;7.00;;;;;;;21.05;51.13;98354.09;1851748;77;25671;-86
2022/04/10 05:00:04;;;;;;;13.25;7.17;;;;;;;21.04;51.12;98352.51;1851426;77;25714;-90
2022/04/10 05:02:30;;;;;;;10.75;6.72;;;;;;;21.06;51.12;98357.07;1851856;77;25971;-85
2022/04/10 05:04:57;;;;;;;12.37;7.30;;;;;;;21.06;51.10;98354.28;1851979;77;28012;-87
2022/04/10 05:07:23;;;;;;;14.10;7.17;;;;;;;21.06;51.09;98357.07;1851736;77;25654;-85
2022/04/10 05:09:50;;;;;;;12.03;6.80;;;;;;;21.08;51.09;98370.61;1851565;77;25735;-86
2022/04/10 05:12:16;;;;;;;10.90;6.62;;;;;;;21.07;51.11;98364.23;1851559;77;25615;-86
2022/04/10 05:14:42;;;;;;;10.53;6.72;;;;;;;21.07;51.12;98372.58;1852081;77;25367;-90
2022/04/10 05:17:08;;;;;;;11.78;6.80;;;;;;;21.06;51.12;98373.78;1852014;77;27371;-91
2022/04/10 05:19:35;;;;;;;12.98;7.15;;;;;;;21.06;51.15;98371.80;1851760;77;25616;-91
2022/04/10 05:22:01;;;;;;;11.33;6.85;;;;;;;21.07;51.15;98372.58;1851935;77;25457;-89
2022/04/10 05:24:27;;;;;;;11.88;7.10;;;;;;;21.07;51.14;98375.38;1851903;77;25656;-90
2022/04/10 05:26:53;;;;;;;10.82;6.50;;;;;;;21.08;51.11;98381.17;1851962;77;25378;-90
2022/04/10 05:29:19;;;;;;;12.78;6.70;;;;;;;21.10;51.12;98384.34;1852040;77;27506;-90
2022/04/10 05:31:45;;;;;;;12.95;7.25;;;;;;;21.09;51.11;98381.95;1851819;77;25620;-86
2022/04/10 05:34:11;;;;;;;12.07;7.10;;;;;;;21.10;51.12;98378.77;1851830;77;25717;-89
2022/04/10 05:36:37;;;;;;;11.97;6.67;;;;;;;21.11;51.12;98382.36;1852068;77;26045;-87
2022/04/10 05:39:03;;;;;;;12.23;6.90;;;;;;;21.12;51.12;98388.13;1864096;76;25649;-86
2022/04/10 05:41:31;;;;;;;13.25;7.12;;;;;;;21.12;51.11;98386.73;1879200;76;27308;-89
2022/04/10 05:43:57;;;;;;;11.25;6.62;;;;;;;21.12;51.10;98390.33;1879243;76;25434;-88
2022/04/10 05:46:25;;;;;;;11.85;6.70;;;;;;;21.13;51.11;98398.88;1879129;76;25545;-89
2022/04/10 05:48:52;;;;;;;9.73;6.17;;;;;;;21.13;51.11;98398.10;1878728;76;25889;-87
2022/04/10 05:51:18;;;;;;;11.78;6.85;;;;;;;21.13;51.13;98406.45;1879167;76;25380;-87
2022/04/10 05:53:44;;;;;;;10.50;6.45;;;;;;;21.12;51.12;98401.47;1879289;76;27434;-89
2022/04/10 05:56:10;;;;;;;11.78;6.65;;;;;;;21.12;51.15;98404.26;1879149;76;25549;-89
2022/04/10 05:58:37;;;;;;;11.78;6.40;;;;;;;21.13;51.14;98406.45;1879045;76;25630;-89
2022/04/10 06:01:03;;;;;;;10.65;6.28;;;;;;;21.14;51.15;98403.86;1878944;75;25948;-88
2022/04/10 06:03:29;;;;;;;9.58;6.10;;;;;;;21.15;51.12;98410.44;1879355;76;25528;-86
2022/04/10 06:05:56;;;;;;;10.38;6.28;;;;;;;21.15;51.13;98407.66;1879261;76;27957;-87
2022/04/10 06:08:22;;;;;;;11.00;6.45;;;;;;;21.15;51.12;98406.84;1879160;76;25553;-88
2022/04/10 06:10:48;;;;;;;11.38;6.72;;;;;;;21.16;51.13;98407.07;1879259;76;25685;-87
2022/04/10 06:13:15;;;;;;;10.93;6.40;;;;;;;21.17;51.15;98404.48;1879186;76;25733;-88
2022/04/10 06:15:41;;;;;;;10.88;6.45;;;;;;;21.16;51.15;98414.81;1879297;76;25389;-89
2022/04/10 06:18:07;;;;;;;9.45;5.85;;;;;;;21.16;51.19;98413.42;1879225;76;28137;-87
2022/04/10 06:20:34;;;;;;;9.83;6.15;;;;;;;21.16;51.18;98416.20;1879076;76;25614;-89
2022/04/10 06:23:00;;;;;;;9.60;6.08;;;;;;;21.17;51.18;98426.77;1854541;76;25706;-90
2022/04/10 06:25:27;;;;;;;11.28;6.00;;;;;;;21.17;51.18;98419.80;1879047;76;25632;-86
2022/04/10 06:27:56;;;;;;;10.95;6.12;;;;;;;21.17;51.22;98420.61;1879220;76;25549;-86
2022/04/10 06:30:21;;;;;;;10.23;5.87;;;;;;;21.19;51.23;98420.22;1878182;76;25917;-89
2022/04/10 06:32:48;;;;;;;9.15;5.62;;;;;;;21.19;51.25;98416.81;1879097;76;26344;-89
2022/04/10 06:35:14;;;;;;;9.93;6.10;;;;;;;21.19;51.25;98411.24;1879054;76;25657;-90
2022/04/10 06:37:42;;;;;;;13.50;6.47;;;;;;;21.20;51.27;98414.84;1872170;76;25859;-89
2022/04/10 06:40:20;;;;;;;9.85;5.80;;;;;;;21.22;51.26;98414.45;1856891;76;25573;-88
2022/04/10 06:42:45;;;;;;;10.13;5.85;;;;;;;21.24;51.34;98414.25;1851060;77;25912;-87
2022/04/10 06:45:11;;;;;;;11.68;6.37;;;;;;;21.27;51.34;98418.26;1851599;77;25446;-89
2022/04/10 06:47:37;;;;;;;10.58;6.00;;;;;;;21.29;51.35;98419.45;1851827;77;25560;-85
2022/04/10 06:50:04;;;;;;;10.70;5.62;;;;;;;21.31;51.36;98423.24;1851747;77;26304;-88
2022/04/10 06:52:30;;;;;;;10.68;5.75;;;;;;;21.32;51.41;98423.44;1851876;77;25453;-89
2022/04/10 06:54:56;;;;;;;10.48;5.80;;;;;;;21.35;51.41;98424.05;1851836;77;27311;-88
2022/04/10 06:57:22;;;;;;;9.05;5.62;;;;;;;21.38;51.43;98428.83;1851901;77;25650;-90
2022/04/10 06:59:49;;;;;;;9.35;5.47;;;;;;;21.41;51.45;98432.23;1851381;77;25663;-91
2022/04/10 07:02:15;;;;;;;9.20;5.42;;;;;;;21.44;51.48;98430.05;1851522;77;25667;-91
2022/04/10 07:04:40;;;;;;;9.40;5.70;;;;;;;21.48;51.52;98430.66;1851471;77;25679;-86
2022/04/10 07:07:07;;;;;;;9.55;5.35;;;;;;;21.48;51.52;98431.47;1851489;77;27586;-85
2022/04/10 07:09:32;;;;;;;9.78;5.72;;;;;;;21.50;51.52;98432.47;1851436;77;25681;-85
2022/04/10 07:11:59;;;;;;;8.83;4.97;;;;;;;21.51;51.52;98429.29;1851603;77;25397;-85
2022/04/10 07:14:25;;;;;;;11.12;5.65;;;;;;;21.52;51.56;98439.83;1851574;77;25565;-85
2022/04/10 07:16:51;;;;;;;8.78;5.22;;;;;;;21.55;51.55;98439.84;1851523;77;25651;-86
2022/04/10 07:19:18;;;;;;;7.85;5.22;;;;;;;21.57;51.53;98436.66;1851494;77;27406;-86
2022/04/10 07:24:28;;;;;;;8.50;5.53;;;;;;;21.60;51.51;98438.66;1851239;77;25667;-85
2022/04/10 07:26:54;;;;;;;9.68;5.15;;;;;;;21.62;51.49;98433.47;1851478;77;26200;-85
2022/04/10 07:29:21;;;;;;;10.28;5.30;;;;;;;21.62;51.45;98444.63;1851482;77;25672;-85
2022/04/10 07:31:47;;;;;;;8.38;4.65;;;;;;;21.63;51.44;98439.27;1851087;77;28265;-87
2022/04/10 07:34:13;;;;;;;13.70;4.80;;;;;;;21.66;51.39;98446.04;1851307;77;25628;-85
2022/04/10 07:36:39;;;;;;;8.95;4.97;;;;;;;21.66;51.34;98439.88;1851644;77;25577;-87
2022/04/10 07:39:05;;;;;;;8.00;5.12;;;;;;;21.68;51.25;98453.42;1851617;77;25637;-87
2022/04/10 07:41:31;;;;;;;9.40;4.92;;;;;;;21.68;51.23;98450.64;1851493;77;25700;-85
2022/04/10 07:43:58;;;;;;;8.73;5.35;;;;;;;21.73;51.18;98449.45;1848884;77;27580;-86
2022/04/10 07:49:09;;;;;;;8.33;4.75;;;;;;;21.78;51.13;98452.67;1852147;77;25739;-85
2022/04/10 07:51:35;;;;;;;7.62;5.00;;;;;;;21.81;51.11;98451.89;1852114;77;25703;-86
2022/04/10 07:54:02;;;;;;;8.53;4.37;;;;;;;21.86;51.10;98456.28;1852130;77;25604;-87
2022/04/10 07:56:28;;;;;;;8.63;4.78;;;;;;;21.88;51.04;98452.48;1852330;77;27373;-86
2022/04/10 07:58:55;;;;;;;7.62;5.00;;;;;;;21.90;51.03;98452.89;1851881;77;25964;-86
2022/04/10 08:01:21;;;;;;;8.55;5.03;;;;;;;21.91;51.02;98455.09;1852255;77;25194;-85
2022/04/10 08:03:51;;;;;;;6.72;4.50;;;;;;;21.92;51.01;98451.09;1852741;77;26249;-89
2022/04/10 08:06:16;;;;;;;8.73;4.85;;;;;;;21.92;51.01;98461.67;1851987;77;25734;-90
2022/04/10 08:08:42;;;;;;;8.33;4.30;;;;;;;21.93;51.01;98457.68;1852934;77;27403;-86
2022/04/10 08:11:08;;;;;;;8.30;4.53;;;;;;;21.93;51.04;98457.68;1852781;77;25654;-86
2022/04/10 08:13:35;;;;;;;6.05;4.03;;;;;;;21.93;51.05;98456.28;1852863;77;25729;-85
2022/04/10 08:16:01;;;;;;;8.78;4.60;;;;;;;21.94;51.08;98465.46;1852778;77;25698;-89
2022/04/10 08:18:28;;;;;;;7.17;4.55;;;;;;;21.95;51.09;98471.23;1853064;77;25647;-85
2022/04/10 08:20:54;;;;;;;7.08;4.20;;;;;;;21.96;51.11;98468.63;1853480;77;27410;-90
2022/04/10 08:23:20;;;;;;;7.85;4.33;;;;;;;21.97;51.13;98473.04;1852315;77;25214;-90
2022/04/10 08:25:47;;;;;;;8.85;4.60;;;;;;;21.96;51.18;98477.00;1851648;77;25607;-90
2022/04/10 08:28:14;;;;;;;6.83;4.15;;;;;;;21.97;51.23;98478.62;1851389;77;25492;-86
2022/04/10 08:30:40;;;;;;;7.83;4.12;;;;;;;21.97;51.23;98480.02;1851938;77;25699;-87
2022/04/10 08:33:08;;;;;;;6.03;3.92;;;;;;;21.98;51.29;98475.21;1851845;77;27312;-86
2022/04/10 08:35:34;;;;;;;7.53;4.20;;;;;;;22.00;51.32;98472.25;1851408;77;25744;-86
2022/04/10 08:38:01;;;;;;;6.95;4.10;;;;;;;22.02;51.36;98480.22;1851952;77;25576;-84
2022/04/10 08:40:29;;;;;;;7.17;3.87;;;;;;;22.01;51.43;98480.00;1851864;77;25958;-85
2022/04/10 08:42:59;;;;;;;6.95;4.10;;;;;;;22.01;51.43;98483.59;1852078;77;25684;-87
2022/04/10 08:45:26;;;;;;;6.37;4.03;;;;;;;22.04;51.43;98491.17;1851965;77;27366;-86
2022/04/10 08:47:55;;;;;;;6.95;3.98;;;;;;;22.04;51.47;98493.97;1851729;77;25674;-85
2022/04/10 08:50:27;;;;;;;6.90;3.87;;;;;;;22.05;51.48;98496.95;1851505;77;25624;-86
2022/04/10 08:52:53;;;;;;;7.42;3.90;;;;;;;22.04;51.53;98496.76;1850445;77;25677;-85
2022/04/10 08:55:20;;;;;;;7.65;3.90;;;;;;;22.04;51.48;98495.36;1851595;77;25390;-85
2022/04/10 08:57:46;;;;;;;7.33;3.70;;;;;;;22.05;51.50;98493.38;1851676;77;27401;-86
2022/04/10 09:00:16;;;;;;;8.40;3.95;;;;;;;22.08;51.49;98498.76;1851552;77;25417;-85
2022/04/10 09:02:49;;;;;;;7.00;3.40;;;;;;;22.06;51.50;98495.78;1851782;77;25401;-86
2022/04/10 09:05:19;;;;;;;5.87;3.45;;;;;;;22.06;51.54;98497.17;1851429;77;26158;-86
2022/04/10 09:08:09;;;;;;;6.05;3.37;;;;;;;22.08;51.50;98504.34;1850985;77;25580;-90
2022/04/10 09:10:57;;;;;;;;;;;;;;;22.08;51.50;98507.94;1853943;77;27485;-87
2022/04/10 09:13:47;;;;;;;7.10;3.27;;;;;;;22.08;51.47;98502.36;1851624;77;25706;-90
2022/04/10 09:16:21;;;;;;;5.97;3.58;;;;;;;22.06;51.48;98504.15;1851065;77;25730;-90
2022/04/10 09:18:56;;;;;;;5.78;3.47;;;;;;;22.08;51.44;98509.92;1851175;77;25571;-89
2022/04/10 09:21:32;;;;;;;5.72;3.12;;;;;;;22.06;51.45;98509.73;1851650;77;25549;-90
2022/04/10 09:24:08;;;;;;;5.97;3.50;;;;;;;22.04;51.49;98509.31;1851578;77;27529;-92
2022/04/10 09:26:48;;;;;;;6.60;3.58;;;;;;;22.05;51.47;98511.52;1851655;77;25576;-91
2022/04/10 09:29:18;;;;;;;6.33;3.50;;;;;;;22.04;51.47;98514.09;1845380;77;25657;-89
2022/04/10 09:31:45;;;;;;;;;;;;;;;22.03;51.46;98511.91;1853344;77;26238;-92
2022/04/10 09:34:21;;;;;;;4.65;2.98;;;;;;;22.02;51.41;98515.09;1851565;77;25595;-94
2022/04/10 09:37:03;;;;;;;5.97;3.40;;;;;;;22.01;51.41;98514.29;1851568;77;27442;-90
2022/04/10 09:39:33;;;;;;;4.33;2.98;;;;;;;22.02;51.38;98512.31;1851123;77;26134;-89
2022/04/10 09:42:12;;;;;;;6.30;3.40;;;;;;;22.02;51.35;98519.28;1851955;77;25367;-92
2022/04/10 09:44:40;;;;;;;6.28;3.10;;;;;;;22.01;51.35;98512.09;1835119;77;25802;-89
2022/04/10 09:47:11;;;;;;;4.67;2.98;;;;;;;22.00;51.33;98516.89;1851623;77;25713;-92
2022/04/10 09:49:41;;;;;;;4.72;3.10;;;;;;;22.00;51.29;98508.52;1851178;77;27518;-87
2022/04/10 09:52:15;;;;;;;4.60;3.10;;;;;;;22.01;51.22;98514.87;1851722;77;25457;-87
2022/04/10 09:54:47;;;;;;;4.75;3.05;;;;;;;22.02;51.17;98513.70;1848221;77;25586;-87
2022/04/10 09:57:19;;;;;;;5.15;3.20;;;;;;;22.04;51.06;98517.69;1851508;77;25594;-87
2022/04/10 09:59:51;;;;;;;5.75;3.08;;;;;;;22.04;51.07;98519.66;1851667;77;25559;-88
2022/04/10 10:02:20;;;;;;;4.45;2.70;;;;;;;22.05;51.04;98514.31;1851305;77;28016;-86
2022/04/10 10:04:49;;;;;;;4.63;2.80;;;;;;;22.05;50.97;98508.73;1847960;77;25774;-88
2022/04/10 10:07:18;;;;;;;4.70;2.87;;;;;;;21.99;50.91;98507.52;1851623;77;25681;-90
2022/04/10 10:09:48;;;;;;;5.00;2.72;;;;;;;22.05;50.87;98512.30;1851677;77;25612;-91
2022/04/10 10:12:15;;;;;;;6.15;2.70;;;;;;;22.05;50.85;98511.52;1851774;77;25555;-88
2022/04/10 10:14:43;;;;;;;5.00;3.17;;;;;;;22.06;50.90;98515.30;1851589;77;27348;-89
2022/04/10 10:17:10;;;;;;;6.03;2.95;;;;;;;22.06;50.91;98514.50;1851583;77;25707;-87
2022/04/10 10:19:41;;;;;;;3.90;2.80;;;;;;;22.05;50.89;98512.30;1851533;77;25647;-91
2022/04/10 10:22:13;;;;;;;3.92;2.60;;;;;;;22.05;50.91;98515.09;1851544;77;26158;-89
2022/04/10 10:25:09;;;;;;;4.60;2.98;;;;;;;22.05;50.89;98508.11;1851582;77;25394;-88
2022/04/10 10:28:02;;;;;;;3.20;2.47;;;;;;;22.05;50.87;98514.31;1851659;77;27472;-91
2022/04/10 10:30:49;;;;;;;5.28;2.42;;;;;;;22.05;50.85;98515.70;1851615;77;25843;-90
2022/04/10 10:33:22;;;;;;;4.62;2.80;;;;;;;22.03;50.85;98507.73;1851558;77;25554;-88
2022/04/10 10:35:52;;;;;;;4.40;2.90;;;;;;;22.04;50.85;98509.90;1851486;77;25746;-88
2022/04/10 10:38:27;;;;;;;4.85;2.80;;;;;;;22.04;50.85;98511.30;1851742;77;25580;-90
2022/04/10 10:41:17;;;;;;;4.65;2.75;;;;;;;22.04;50.86;98508.50;1851554;77;27594;-92
2022/04/10 10:43:44;;;;;;;3.85;2.40;;;;;;;22.06;50.86;98505.55;1851716;77;25659;-91
2022/04/10 10:46:32;;;;;;;4.35;2.50;;;;;;;22.07;50.86;98504.92;1851604;77;25646;-87
2022/04/10 10:49:19;;;;;;;5.33;2.30;;;;;;;22.06;50.89;98506.94;1850731;77;25695;-91
2022/04/10 10:51:48;;;;;;;4.62;2.60;;;;;;;22.07;50.92;98511.90;1851588;77;25647;-91
2022/04/10 10:54:29;;;;;;;7.25;3.10;;;;;;;22.08;50.97;98509.92;1851792;77;27512;-91
2022/04/10 10:56:55;;;;;;;;;;;;;;;22.08;51.07;98507.13;1854226;77;25889;-94
2022/04/10 10:59:26;;;;;;;4.45;2.62;;;;;;;22.09;51.19;98514.30;1848476;77;25628;-92
2022/04/10 11:02:06;;;;;;;4.78;2.52;;;;;;;22.08;51.26;98516.30;1851135;77;25655;-90
2022/04/10 11:04:41;;;;;;;4.15;2.77;;;;;;;22.08;51.35;98512.71;1851792;77;25569;-91
2022/04/10 11:07:24;;;;;;;3.80;2.67;;;;;;;22.10;51.40;98512.50;1851556;77;27429;-90
2022/04/10 11:10:07;;;;;;;4.40;2.58;;;;;;;22.11;51.49;98507.73;1851057;77;25601;-91
2022/04/10 11:12:47;;;;;;;4.85;2.70;;;;;;;22.11;51.54;98514.13;1851591;77;25624;-87
2022/04/10 11:15:23;;;;;;;4.17;2.60;;;;;;;22.13;51.66;98509.55;1851544;77;25602;-89
2022/04/10 11:17:54;;;;;;;5.22;2.75;;;;;;;22.13;51.74;98508.92;1851526;77;25434;-86
2022/04/10 11:20:22;;;;;;;4.35;2.67;;;;;;;22.14;51.84;98509.11;1851543;77;28155;-88
2022/04/10 11:22:54;;;;;;;4.47;2.42;;;;;;;22.15;51.87;98508.53;1851421;77;25655;-87
2022/04/10 11:25:28;;;;;;;3.37;2.30;;;;;;;22.17;51.98;98514.52;1851609;77;25717;-86
2022/04/10 11:28:10;;;;;;;4.03;2.50;;;;;;;22.16;52.06;98508.13;1850705;77;25539;-85
2022/04/10 11:30:46;;;;;;;4.37;2.30;;;;;;;22.18;52.13;98513.32;1851217;77;25647;-85
2022/04/10 11:33:14;;;;;;;4.35;2.60;;;;;;;22.19;52.23;98512.11;1851497;77;27425;-86
2022/04/10 11:35:44;;;;;;;3.30;2.50;;;;;;;22.20;52.33;98503.96;1851603;77;25569;-86
2022/04/10 11:38:17;;;;;;;4.03;2.67;;;;;;;22.21;52.41;98500.55;1851666;77;25664;-86
2022/04/10 11:40:49;;;;;;;3.47;2.58;;;;;;;22.22;52.57;98509.92;1850700;77;25698;-86